createdAt,value
2019-05-20T00:02:28.366Z,16.90
2019-05-20T00:04:57.876Z,16.62
2019-05-20T00:07:28.686Z,16.97
2019-05-20T00:09:59.580Z,17.07
2019-05-20T00:12:30.488Z,17.43
2019-05-20T00:15:01.072Z,16.57
2019-05-20T00:17:31.974Z,17.17
2019-05-20T00:20:03.043Z,17.35
2019-05-20T00:22:33.821Z,16.87
2019-05-20T00:25:07.940Z,17.77
2019-05-20T00:27:38.772Z,17.07
2019-05-20T00:30:09.951Z,17.80
2019-05-20T00:32:42.351Z,17.73
2019-05-20T00:35:13.738Z,17.37
2019-05-20T00:37:44.561Z,17.23
2019-05-20T00:40:15.994Z,17.27
2019-05-20T00:42:46.808Z,16.85
2019-05-20T00:45:17.819Z,17.27
2019-05-20T00:47:48.218Z,17.77
2019-05-20T00:50:18.860Z,17.00
2019-05-20T00:52:49.629Z,16.55
2019-05-20T00:55:26.929Z,17.02
2019-05-20T00:57:57.464Z,16.67
2019-05-20T01:00:28.594Z,16.87
2019-05-20T01:02:59.400Z,16.90
2019-05-20T01:05:30.241Z,17.73
2019-05-20T01:08:01.074Z,17.12
2019-05-20T01:10:31.910Z,17.77
2019-05-20T01:13:02.685Z,17.43
2019-05-20T01:15:33.847Z,17.53
2019-05-20T01:18:04.646Z,18.10
2019-05-20T01:20:35.667Z,18.30
2019-05-20T01:23:06.411Z,17.98
2019-05-20T01:25:37.263Z,18.23
2019-05-20T01:28:08.015Z,18.20
2019-05-20T01:30:38.830Z,17.92
2019-05-20T01:33:13.678Z,18.70
2019-05-20T01:35:41.791Z,18.42
2019-05-20T01:38:12.553Z,18.10
2019-05-20T01:40:44.435Z,18.53
2019-05-20T01:43:15.333Z,17.87
2019-05-20T01:45:47.854Z,18.25
2019-05-20T01:48:18.699Z,17.97
2019-05-20T01:50:49.624Z,17.82
2019-05-20T01:53:20.132Z,18.17
2019-05-20T01:55:50.527Z,18.63
2019-05-20T01:58:21.519Z,18.00
2019-05-20T02:00:52.934Z,18.40
2019-05-20T02:03:31.801Z,18.05
2019-05-20T02:05:56.152Z,17.63
2019-05-20T02:08:26.621Z,19.27
2019-05-20T02:10:57.450Z,17.67
2019-05-20T02:13:29.899Z,18.95
2019-05-20T02:16:05.058Z,17.87
2019-05-20T02:18:35.783Z,18.37
2019-05-20T02:21:06.614Z,18.70
2019-05-20T02:23:37.476Z,18.00
2019-05-20T02:26:07.978Z,18.30
2019-05-20T02:28:38.825Z,17.92
2019-05-20T02:31:10.001Z,17.67
2019-05-20T02:33:51.451Z,17.90
2019-05-20T02:36:13.312Z,18.37
2019-05-20T02:38:43.799Z,18.43
2019-05-20T02:41:14.327Z,18.20
2019-05-20T02:43:45.235Z,19.53
2019-05-20T02:46:16.000Z,18.70
2019-05-20T02:48:46.838Z,17.97
2019-05-20T02:51:19.416Z,17.40
2019-05-20T02:53:49.895Z,18.77
2019-05-20T02:56:20.857Z,18.20
2019-05-20T02:58:51.758Z,18.53
2019-05-20T03:01:22.540Z,18.37
2019-05-20T03:04:09.968Z,18.00
2019-05-20T03:06:26.053Z,18.33
2019-05-20T03:08:56.878Z,19.27
2019-05-20T03:11:27.697Z,18.37
2019-05-20T03:13:58.506Z,18.20
2019-05-20T03:16:29.428Z,18.90
2019-05-20T03:19:00.256Z,18.80
2019-05-20T03:21:31.147Z,18.57
2019-05-20T03:24:01.674Z,18.93
2019-05-20T03:26:32.750Z,18.83
2019-05-20T03:29:03.517Z,19.03
2019-05-20T03:31:34.539Z,19.63
2019-05-20T03:34:05.492Z,18.77
2019-05-20T03:36:36.727Z,19.03
2019-05-20T03:39:07.564Z,19.57
2019-05-20T03:41:38.302Z,19.60
2019-05-20T03:44:09.140Z,19.73
2019-05-20T03:46:39.987Z,19.80
2019-05-20T03:49:10.907Z,19.60
2019-05-20T03:51:41.957Z,19.67
2019-05-20T03:54:12.780Z,19.43
2019-05-20T03:56:43.638Z,20.53
2019-05-20T03:59:14.455Z,20.57
2019-05-20T04:01:45.319Z,20.40
2019-05-20T04:04:16.214Z,20.13
2019-05-20T04:06:47.323Z,20.07
2019-05-20T04:09:17.825Z,19.90
2019-05-20T04:11:48.610Z,21.00
2019-05-20T04:14:19.546Z,19.77
2019-05-20T04:16:51.973Z,20.80
2019-05-20T04:19:22.952Z,21.23
2019-05-20T04:21:53.956Z,20.90
2019-05-20T04:24:24.412Z,21.97
2019-05-20T04:27:01.564Z,20.27
2019-05-20T04:29:32.420Z,20.70
2019-05-20T04:32:03.277Z,20.77
2019-05-20T04:34:34.084Z,20.23
2019-05-20T04:37:04.652Z,20.20
2019-05-20T04:39:35.538Z,21.13
2019-05-20T04:42:07.039Z,20.97
2019-05-20T04:44:38.254Z,21.50
2019-05-20T04:47:09.118Z,20.47
2019-05-20T04:49:39.602Z,19.30
2019-05-20T04:52:10.351Z,20.37
2019-05-20T04:54:41.058Z,19.90
2019-05-20T04:57:11.934Z,20.23
2019-05-20T04:59:42.843Z,19.63
2019-05-20T05:02:13.671Z,19.60
2019-05-20T05:04:44.403Z,20.13
2019-05-20T05:07:15.380Z,19.30
2019-05-20T05:09:46.176Z,19.00
2019-05-20T05:12:16.912Z,20.13
2019-05-20T05:14:47.801Z,19.43
2019-05-20T05:17:18.712Z,20.32
2019-05-20T05:19:49.730Z,20.30
2019-05-20T05:22:20.594Z,19.63
2019-05-20T05:24:51.461Z,20.23
2019-05-20T05:27:22.338Z,20.33
2019-05-20T05:29:53.345Z,19.87
2019-05-20T05:32:43.883Z,18.80
2019-05-20T05:35:18.313Z,18.95
2019-05-20T05:37:49.325Z,18.93
2019-05-20T05:40:23.261Z,18.90
2019-05-20T05:42:54.274Z,17.42
2019-05-20T05:45:30.615Z,16.60
2019-05-20T05:48:01.640Z,18.57
2019-05-20T05:50:32.454Z,17.73
2019-05-20T05:53:03.362Z,18.02
2019-05-20T05:55:34.266Z,17.55
2019-05-20T05:58:08.363Z,17.57
2019-05-20T06:00:37.368Z,17.57
2019-05-20T06:03:08.505Z,17.10
2019-05-20T06:05:39.425Z,17.17
2019-05-20T06:08:10.263Z,18.07
2019-05-20T06:10:41.088Z,18.27
2019-05-20T06:13:11.937Z,17.60
2019-05-20T06:15:42.776Z,17.85
2019-05-20T06:18:13.322Z,17.37
2019-05-20T06:20:44.370Z,16.67
2019-05-20T06:23:15.284Z,16.35
2019-05-20T06:25:46.233Z,16.17
2019-05-20T06:28:17.064Z,16.77
2019-05-20T06:30:48.133Z,17.62
2019-05-20T06:33:19.054Z,17.60
2019-05-20T06:35:50.687Z,16.32
2019-05-20T06:38:35.191Z,16.90
2019-05-20T06:41:07.656Z,16.23
2019-05-20T06:43:38.728Z,16.35
2019-05-20T06:46:10.015Z,16.60
2019-05-20T06:48:40.981Z,15.83
2019-05-20T06:51:11.792Z,14.83
2019-05-20T06:53:42.618Z,15.85
2019-05-20T06:56:13.699Z,15.23
2019-05-20T06:58:44.593Z,15.35
2019-05-20T07:01:15.407Z,15.03
2019-05-20T07:03:46.287Z,13.95
2019-05-20T07:06:17.165Z,14.73
2019-05-20T07:08:49.077Z,15.40
2019-05-20T07:11:19.930Z,15.53
2019-05-20T07:13:51.157Z,14.83
2019-05-20T07:16:21.997Z,14.30
2019-05-20T07:18:53.055Z,13.55
2019-05-20T07:21:24.039Z,13.15
2019-05-20T07:23:54.587Z,12.65
2019-05-20T07:26:25.605Z,12.75
2019-05-20T07:28:57.525Z,13.28
2019-05-20T07:31:28.608Z,12.25
2019-05-20T07:33:59.583Z,12.60
2019-05-20T07:36:30.483Z,11.57
2019-05-20T07:39:01.333Z,12.63
2019-05-20T07:41:33.794Z,12.40
2019-05-20T07:44:04.414Z,12.37
2019-05-20T07:46:35.991Z,12.10
2019-05-20T07:49:07.862Z,12.33
2019-05-20T07:51:40.278Z,11.93
2019-05-20T07:54:12.069Z,11.43
2019-05-20T07:56:46.498Z,10.95
2019-05-20T07:59:20.515Z,10.98
2019-05-20T08:01:51.675Z,10.53
2019-05-20T08:04:22.213Z,10.98
2019-05-20T08:06:53.075Z,10.38
2019-05-20T08:09:24.086Z,10.23
2019-05-20T08:11:54.667Z,10.08
2019-05-20T08:14:25.565Z,9.88
2019-05-20T08:16:56.604Z,9.95
2019-05-20T08:19:27.175Z,10.28
2019-05-20T08:21:58.166Z,10.82
2019-05-20T08:24:29.955Z,10.45
2019-05-20T08:27:00.931Z,9.93
2019-05-20T08:29:32.093Z,10.70
2019-05-20T08:32:04.514Z,10.55
2019-05-20T08:34:37.947Z,10.60
2019-05-20T08:37:09.947Z,9.88
2019-05-20T08:39:40.995Z,9.73
2019-05-20T08:42:11.971Z,10.93
2019-05-20T08:44:45.750Z,10.65
2019-05-20T08:47:16.864Z,9.38
2019-05-20T08:49:47.778Z,9.28
2019-05-20T08:52:22.039Z,9.50
2019-05-20T08:54:52.659Z,9.70
2019-05-20T08:57:25.197Z,9.00
2019-05-20T08:59:56.205Z,9.20
2019-05-20T09:02:27.050Z,9.20
2019-05-20T09:04:57.977Z,9.05
2019-05-20T09:07:28.968Z,9.60
2019-05-20T09:10:00.024Z,9.05
2019-05-20T09:12:30.969Z,9.83
2019-05-20T09:15:02.252Z,9.28
2019-05-20T09:17:33.178Z,8.33
2019-05-20T09:20:05.653Z,8.48
2019-05-20T09:22:36.761Z,7.92
2019-05-20T09:25:08.734Z,8.60
2019-05-20T09:27:39.753Z,7.42
2019-05-20T09:30:11.679Z,7.72
2019-05-20T09:32:43.401Z,8.05
2019-05-20T09:35:15.400Z,7.83
2019-05-20T09:37:46.257Z,7.72
2019-05-20T09:40:37.085Z,7.40
2019-05-20T09:43:07.738Z,8.13
2019-05-20T09:45:38.645Z,7.60
2019-05-20T09:48:10.140Z,7.47
2019-05-20T09:50:41.660Z,7.58
2019-05-20T09:53:12.600Z,7.40
2019-05-20T09:55:45.844Z,7.67
2019-05-20T09:58:16.574Z,7.28
2019-05-20T10:00:47.545Z,6.70
2019-05-20T10:03:18.393Z,6.05
2019-05-20T10:05:49.306Z,6.10
2019-05-20T10:08:36.330Z,5.95
2019-05-20T10:10:51.936Z,6.25
2019-05-20T10:13:22.753Z,6.20
2019-05-20T10:15:53.555Z,6.35
2019-05-20T10:18:36.742Z,6.60
2019-05-20T10:20:57.280Z,6.55
2019-05-20T10:23:28.395Z,6.55
2019-05-20T10:25:58.893Z,6.75
2019-05-20T10:28:29.850Z,6.75
2019-05-20T10:31:00.383Z,6.70
2019-05-20T10:33:31.265Z,7.12
2019-05-20T10:36:01.982Z,6.45
2019-05-20T10:38:32.472Z,7.00
2019-05-20T10:41:03.386Z,7.37
2019-05-20T10:43:34.298Z,7.10
2019-05-20T10:46:05.257Z,6.95
2019-05-20T10:48:36.073Z,6.95
2019-05-20T10:51:10.254Z,7.25
2019-05-20T10:53:39.644Z,6.87
2019-05-20T10:56:10.752Z,6.47
2019-05-20T10:58:41.616Z,6.37
2019-05-20T11:01:12.508Z,5.85
2019-05-20T11:03:42.891Z,6.70
2019-05-20T11:06:13.778Z,6.05
2019-05-20T11:08:44.609Z,5.85
2019-05-20T11:11:15.067Z,6.62
2019-05-20T11:13:47.463Z,5.70
2019-05-20T11:16:18.332Z,5.97
2019-05-20T11:18:49.288Z,6.70
2019-05-20T11:21:20.061Z,7.17
2019-05-20T11:23:50.876Z,7.00
2019-05-20T11:26:21.341Z,6.62
2019-05-20T11:28:52.238Z,6.42
2019-05-20T11:31:22.956Z,6.50
2019-05-20T11:33:57.428Z,7.17
2019-05-20T11:36:29.832Z,6.75
2019-05-20T11:39:00.841Z,6.87
2019-05-20T11:41:52.179Z,7.15
2019-05-20T11:44:04.725Z,7.17
2019-05-20T11:46:35.656Z,6.83
2019-05-20T11:49:07.148Z,7.10
2019-05-20T11:51:38.094Z,6.83
2019-05-20T11:54:08.876Z,7.47
2019-05-20T11:56:39.503Z,6.95
2019-05-20T11:59:10.373Z,7.35
2019-05-20T12:01:41.316Z,6.95
2019-05-20T12:04:12.223Z,7.08
2019-05-20T12:06:43.132Z,6.90
2019-05-20T12:09:13.619Z,6.95
2019-05-20T12:11:44.483Z,7.42
2019-05-20T12:14:15.276Z,7.22
2019-05-20T12:16:46.135Z,7.87
2019-05-20T12:19:17.056Z,7.12
2019-05-20T12:21:47.966Z,6.90
2019-05-20T12:24:18.994Z,7.70
2019-05-20T12:26:49.547Z,8.20
2019-05-20T12:29:20.480Z,8.20
2019-05-20T12:31:50.914Z,8.58
2019-05-20T12:34:21.800Z,8.13
2019-05-20T12:36:52.334Z,8.38
2019-05-20T12:39:23.179Z,8.80
2019-05-20T12:41:54.205Z,7.97
2019-05-20T12:44:25.089Z,7.42
2019-05-20T12:46:55.741Z,7.12
2019-05-20T12:49:26.751Z,8.03
2019-05-20T12:51:57.834Z,7.37
2019-05-20T12:54:28.851Z,8.00
2019-05-20T12:56:59.392Z,7.53
2019-05-20T12:59:30.387Z,7.90
2019-05-20T13:02:01.349Z,7.40
2019-05-20T13:04:33.017Z,8.08
2019-05-20T13:07:04.141Z,8.00
2019-05-20T13:09:34.970Z,7.85
2019-05-20T13:12:05.861Z,8.43
2019-05-20T13:14:36.410Z,7.95
2019-05-20T13:17:07.376Z,7.60
2019-05-20T13:19:38.299Z,8.30
2019-05-20T13:22:09.243Z,7.85
2019-05-20T13:24:39.836Z,8.33
2019-05-20T13:27:10.404Z,8.08
2019-05-20T13:29:40.993Z,8.75
2019-05-20T13:32:11.825Z,8.55
2019-05-20T13:34:42.842Z,7.17
2019-05-20T13:37:16.453Z,8.23
2019-05-20T13:39:47.381Z,7.97
2019-05-20T13:42:18.264Z,8.28
2019-05-20T13:44:49.179Z,7.67
2019-05-20T13:47:21.796Z,8.08
2019-05-20T13:49:52.810Z,8.68
2019-05-20T13:52:23.679Z,7.72
2019-05-20T13:54:54.511Z,8.58
2019-05-20T13:57:25.302Z,8.28
2019-05-20T13:59:56.177Z,8.35
2019-05-20T14:02:27.136Z,8.15
2019-05-20T14:04:58.590Z,8.53
2019-05-20T14:07:29.685Z,8.75
2019-05-20T14:10:00.238Z,9.33
2019-05-20T14:12:31.012Z,9.30
2019-05-20T14:15:01.940Z,9.55
2019-05-20T14:17:32.958Z,10.30
2019-05-20T14:20:09.801Z,10.25
2019-05-20T14:22:40.427Z,9.20
2019-05-20T14:25:11.569Z,9.75
2019-05-20T14:27:42.611Z,10.38
2019-05-20T14:30:14.595Z,10.70
2019-05-20T14:32:47.131Z,10.85
2019-05-20T14:35:18.254Z,12.30
2019-05-20T14:37:48.875Z,13.43
2019-05-20T14:40:20.013Z,12.33
2019-05-20T14:42:50.856Z,13.00
2019-05-20T14:45:21.795Z,13.70
2019-05-20T14:47:53.091Z,13.15
2019-05-20T14:50:24.105Z,13.90
2019-05-20T14:52:54.616Z,17.40
2019-05-20T14:55:25.611Z,15.72
2019-05-20T14:57:56.589Z,15.60
2019-05-20T15:00:30.707Z,15.70
2019-05-20T15:03:01.660Z,14.80
2019-05-20T15:05:32.616Z,16.52
2019-05-20T15:08:03.743Z,16.02
2019-05-20T15:10:34.644Z,15.55
2019-05-20T15:13:05.526Z,15.58
2019-05-20T15:15:36.367Z,15.58
2019-05-20T15:18:07.158Z,16.82
2019-05-20T15:20:37.995Z,11.75
2019-05-20T15:23:08.807Z,9.35
2019-05-20T15:25:39.685Z,19.17
2019-05-20T15:28:10.778Z,12.53
2019-05-20T15:30:41.613Z,12.07
2019-05-20T15:33:12.597Z,12.93
2019-05-20T15:35:43.515Z,15.50
2019-05-20T15:38:14.384Z,19.10
2019-05-20T15:40:45.302Z,19.80
2019-05-20T15:43:16.118Z,20.77
2019-05-20T15:45:46.788Z,17.50
2019-05-20T15:48:17.286Z,13.10
2019-05-20T15:50:48.064Z,13.60
2019-05-20T15:53:19.077Z,15.30
2019-05-20T15:55:49.767Z,16.93
2019-05-20T15:58:23.687Z,14.53
2019-05-20T16:00:53.128Z,12.90
2019-05-20T16:03:24.107Z,17.30
2019-05-20T16:05:55.006Z,21.20
2019-05-20T16:08:25.830Z,19.60
2019-05-20T16:10:56.688Z,18.40
2019-05-20T16:13:27.613Z,19.63
2019-05-20T16:15:58.474Z,22.03
2019-05-20T16:18:29.575Z,21.33
2019-05-20T16:21:00.653Z,20.13
2019-05-20T16:23:31.606Z,21.60
2019-05-20T16:26:02.448Z,19.55
2019-05-20T16:28:33.261Z,18.90
2019-05-20T16:31:04.215Z,25.47
2019-05-20T16:33:34.989Z,21.48
2019-05-20T16:36:05.855Z,23.07
2019-05-20T16:38:36.802Z,20.77
2019-05-20T16:41:07.310Z,22.63
2019-05-20T16:43:38.206Z,23.07
2019-05-20T16:46:08.719Z,20.53
2019-05-20T16:48:39.648Z,19.63
2019-05-20T16:51:10.687Z,19.45
2019-05-20T16:53:43.124Z,21.82
2019-05-20T16:56:14.006Z,23.22
2019-05-20T16:58:44.985Z,21.42
2019-05-20T17:01:15.475Z,23.03
2019-05-20T17:03:46.282Z,21.95
2019-05-20T17:06:17.153Z,21.85
2019-05-20T17:08:48.177Z,21.27
2019-05-20T17:11:18.924Z,20.95
2019-05-20T17:13:49.878Z,20.05
2019-05-20T17:16:21.593Z,19.17
2019-05-20T17:18:52.557Z,19.67
2019-05-20T17:21:23.573Z,21.02
2019-05-20T17:23:54.545Z,21.00
2019-05-20T17:26:25.479Z,24.18
2019-05-20T17:28:56.496Z,22.17
2019-05-20T17:31:30.168Z,21.25
2019-05-20T17:33:59.667Z,21.73
2019-05-20T17:36:30.916Z,17.75
2019-05-20T17:39:02.132Z,17.43
2019-05-20T17:41:32.793Z,16.42
2019-05-20T17:44:03.686Z,17.23
2019-05-20T17:46:35.615Z,18.17
2019-05-20T17:49:06.383Z,20.10
2019-05-20T17:51:37.713Z,18.00
2019-05-20T17:54:08.321Z,16.27
2019-05-20T17:56:39.661Z,17.90
2019-05-20T17:59:10.334Z,18.53
2019-05-20T18:01:41.149Z,18.03
2019-05-20T18:04:12.096Z,18.17
2019-05-20T18:06:44.588Z,17.67
2019-05-20T18:09:15.507Z,18.57
2019-05-20T18:11:46.632Z,17.37
2019-05-20T18:14:17.175Z,18.10
2019-05-20T18:16:48.100Z,17.40
2019-05-20T18:19:19.154Z,18.77
2019-05-20T18:21:51.693Z,17.43
2019-05-20T18:24:22.951Z,17.63
2019-05-20T18:26:55.088Z,18.10
2019-05-20T18:29:25.867Z,17.27
2019-05-20T18:31:56.775Z,17.73
2019-05-20T18:34:27.655Z,18.90
2019-05-20T18:36:58.566Z,20.40
2019-05-20T18:39:29.565Z,19.73
2019-05-20T18:42:00.104Z,20.77
2019-05-20T18:44:31.031Z,22.80
2019-05-20T18:47:01.867Z,22.20
2019-05-20T18:49:33.038Z,23.37
2019-05-20T18:52:04.398Z,23.73
2019-05-20T18:54:35.224Z,24.10
2019-05-20T18:57:06.178Z,24.60
2019-05-20T18:59:37.066Z,23.37
2019-05-20T19:02:07.529Z,23.27
2019-05-20T19:04:38.438Z,25.40
2019-05-20T19:07:21.957Z,26.33
2019-05-20T19:09:49.434Z,27.13
2019-05-20T19:12:20.145Z,25.70
2019-05-20T19:14:50.696Z,26.17
2019-05-20T19:17:21.381Z,24.73
2019-05-20T19:19:52.456Z,26.20
2019-05-20T19:22:23.405Z,24.87
2019-05-20T19:24:55.751Z,24.92
2019-05-20T19:27:28.121Z,26.67
2019-05-20T19:30:04.311Z,27.90
2019-05-20T19:32:34.208Z,26.30
2019-05-20T19:35:09.784Z,26.77
2019-05-20T19:37:40.744Z,24.33
2019-05-20T19:40:12.894Z,24.30
2019-05-20T19:42:43.742Z,23.17
2019-05-20T19:45:15.058Z,23.63
2019-05-20T19:47:45.882Z,24.50
2019-05-20T19:50:18.387Z,24.27
2019-05-20T19:52:49.355Z,24.03
2019-05-20T19:55:19.900Z,24.70
2019-05-20T19:57:51.769Z,22.40
2019-05-20T20:00:23.957Z,23.03
2019-05-20T20:02:54.820Z,23.00
2019-05-20T20:05:25.666Z,21.05
2019-05-20T20:07:56.615Z,20.40
2019-05-20T20:10:27.426Z,20.68
2019-05-20T20:12:58.269Z,18.55
2019-05-20T20:15:29.175Z,17.33
2019-05-20T20:18:00.102Z,17.45
2019-05-20T20:20:30.872Z,17.43
2019-05-20T20:23:01.907Z,17.70
2019-05-20T20:25:32.843Z,16.23
2019-05-20T20:28:05.370Z,15.30
2019-05-20T20:30:36.475Z,15.40
2019-05-20T20:33:07.145Z,15.63
2019-05-20T20:35:38.616Z,15.43
2019-05-20T20:38:09.612Z,16.30
2019-05-20T20:40:40.552Z,15.90
2019-05-20T20:43:11.560Z,17.12
2019-05-20T20:45:44.054Z,18.17
2019-05-20T20:48:14.535Z,18.00
2019-05-20T20:50:46.889Z,18.67
2019-05-20T20:53:36.591Z,18.03
2019-05-20T20:56:07.187Z,18.10
2019-05-20T20:58:38.096Z,18.63
2019-05-20T21:01:08.973Z,17.27
2019-05-20T21:03:42.456Z,16.90
2019-05-20T21:06:13.390Z,17.53
2019-05-20T21:08:44.133Z,17.33
2019-05-20T21:11:16.968Z,16.10
2019-05-20T21:13:48.637Z,15.57
2019-05-20T21:16:19.547Z,15.43
2019-05-20T21:18:50.420Z,15.53
2019-05-20T21:21:21.354Z,15.73
2019-05-20T21:23:52.099Z,14.63
2019-05-20T21:26:22.952Z,13.27
2019-05-20T21:28:53.872Z,13.63
2019-05-20T21:31:24.869Z,14.20
2019-05-20T21:33:55.752Z,14.63
2019-05-20T21:36:26.645Z,14.90
2019-05-20T21:38:57.527Z,15.30
2019-05-20T21:41:28.023Z,15.00
2019-05-20T21:43:58.934Z,15.53
2019-05-20T21:46:29.726Z,15.90
2019-05-20T21:49:00.651Z,13.73
2019-05-20T21:51:31.525Z,14.70
2019-05-20T21:54:02.337Z,14.20
2019-05-20T21:56:33.268Z,13.17
2019-05-20T21:59:04.112Z,13.50
2019-05-20T22:01:34.945Z,13.23
2019-05-20T22:04:05.784Z,13.67
2019-05-20T22:06:36.529Z,12.93
2019-05-20T22:09:07.777Z,12.90
2019-05-20T22:11:38.536Z,13.83
2019-05-20T22:14:09.347Z,13.67
2019-05-20T22:16:40.749Z,13.03
2019-05-20T22:19:11.539Z,13.57
2019-05-20T22:21:44.054Z,13.50
2019-05-20T22:24:14.675Z,14.17
2019-05-20T22:26:45.499Z,14.83
2019-05-20T22:29:16.388Z,14.33
2019-05-20T22:32:23.397Z,14.80
2019-05-20T22:34:54.120Z,14.43
2019-05-20T22:37:24.639Z,14.70
2019-05-20T22:39:55.413Z,15.07
2019-05-20T22:42:26.278Z,14.93
2019-05-20T22:44:57.077Z,14.97
2019-05-20T22:47:27.798Z,15.30
2019-05-20T22:49:58.769Z,14.83
2019-05-20T22:52:29.746Z,14.60
2019-05-20T22:55:00.683Z,14.57
2019-05-20T22:57:32.890Z,16.47
2019-05-20T23:00:04.970Z,16.00
2019-05-20T23:02:35.791Z,19.30
2019-05-20T23:05:06.902Z,18.50
2019-05-20T23:07:37.733Z,18.10
2019-05-20T23:10:10.689Z,18.17
2019-05-20T23:12:42.907Z,18.83
2019-05-20T23:15:14.075Z,18.10
2019-05-20T23:17:44.905Z,17.77
2019-05-20T23:20:15.925Z,17.23
2019-05-20T23:22:46.501Z,17.43
2019-05-20T23:25:17.517Z,17.50
2019-05-20T23:27:48.077Z,18.10
2019-05-20T23:30:19.938Z,18.80
2019-05-20T23:32:50.439Z,17.97
2019-05-20T23:35:21.317Z,17.87
2019-05-20T23:37:54.994Z,19.03
2019-05-20T23:40:25.833Z,18.87
2019-05-20T23:42:59.830Z,19.17
2019-05-20T23:45:31.804Z,18.47
2019-05-20T23:48:02.829Z,20.27
2019-05-20T23:50:33.663Z,20.10
2019-05-20T23:53:04.518Z,20.00
2019-05-20T23:55:37.483Z,19.70
2019-05-20T23:58:07.519Z,19.87
